createdAt,value
2018-12-03T00:01:55.725Z,2.60
2018-12-03T00:04:25.567Z,2.80
2018-12-03T00:06:55.222Z,2.80
2018-12-03T00:09:24.822Z,2.80
2018-12-03T00:11:54.418Z,2.70
2018-12-03T00:14:24.094Z,2.70
2018-12-03T00:16:53.910Z,2.70
2018-12-03T00:19:23.558Z,2.70
2018-12-03T00:21:53.115Z,2.80
2018-12-03T00:24:22.992Z,2.80
2018-12-03T00:26:52.659Z,2.90
2018-12-03T00:29:22.320Z,2.90
2018-12-03T00:31:52.097Z,2.90
2018-12-03T00:34:21.746Z,2.80
2018-12-03T00:36:51.665Z,2.70
2018-12-03T00:39:21.207Z,2.80
2018-12-03T00:41:51.102Z,2.90
2018-12-03T00:44:20.615Z,2.90
2018-12-03T00:46:50.431Z,2.80
2018-12-03T00:49:20.060Z,2.80
2018-12-03T00:51:49.540Z,2.80
2018-12-03T00:54:19.145Z,2.90
2018-12-03T00:56:49.205Z,2.90
2018-12-03T00:59:18.790Z,2.90
2018-12-03T01:01:48.363Z,3.00
2018-12-03T01:04:17.968Z,2.80
2018-12-03T01:06:47.618Z,2.80
2018-12-03T01:09:17.208Z,2.80
2018-12-03T01:11:47.019Z,2.80
2018-12-03T01:14:16.843Z,2.90
2018-12-03T01:16:46.662Z,3.10
2018-12-03T01:19:16.528Z,3.10
2018-12-03T01:21:46.066Z,3.10
2018-12-03T01:24:16.030Z,3.20
2018-12-03T01:26:45.660Z,3.20
2018-12-03T01:29:15.194Z,3.20
2018-12-03T01:31:44.834Z,3.10
2018-12-03T01:34:14.390Z,3.00
2018-12-03T01:36:44.162Z,3.00
2018-12-03T01:39:13.585Z,3.10
2018-12-03T01:41:43.412Z,3.00
2018-12-03T01:44:13.006Z,3.10
2018-12-03T01:46:42.424Z,3.20
2018-12-03T01:49:12.060Z,3.20
2018-12-03T01:51:41.641Z,3.20
2018-12-03T01:54:11.375Z,3.30
2018-12-03T01:56:40.983Z,3.40
2018-12-03T01:59:10.470Z,3.20
2018-12-03T02:01:40.472Z,3.20
2018-12-03T02:04:10.006Z,3.30
2018-12-03T02:06:39.998Z,3.10
2018-12-03T02:09:10.061Z,3.20
2018-12-03T02:11:40.089Z,3.20
2018-12-03T02:14:09.773Z,3.10
2018-12-03T02:16:39.661Z,3.10
2018-12-03T02:19:09.505Z,3.10
2018-12-03T02:21:39.214Z,3.10
2018-12-03T02:24:08.837Z,3.10
2018-12-03T02:26:38.451Z,3.10
2018-12-03T02:29:08.063Z,3.30
2018-12-03T02:31:37.515Z,3.40
2018-12-03T02:34:07.250Z,3.40
2018-12-03T02:36:37.019Z,3.40
2018-12-03T02:39:08.499Z,3.40
2018-12-03T02:41:38.086Z,3.40
2018-12-03T02:44:07.743Z,3.50
2018-12-03T02:46:37.471Z,3.30
2018-12-03T02:49:07.308Z,3.30
2018-12-03T02:51:36.820Z,3.30
2018-12-03T02:54:06.753Z,3.30
2018-12-03T02:56:36.485Z,3.30
2018-12-03T02:59:06.301Z,3.30
2018-12-03T03:01:35.881Z,3.30
2018-12-03T03:04:05.752Z,3.40
2018-12-03T03:06:35.400Z,3.50
2018-12-03T03:09:07.146Z,3.50
2018-12-03T03:11:36.876Z,3.50
2018-12-03T03:14:06.790Z,3.50
2018-12-03T03:16:36.458Z,3.50
2018-12-03T03:19:06.216Z,3.60
2018-12-03T03:21:35.790Z,3.50
2018-12-03T03:24:05.921Z,3.60
2018-12-03T03:26:35.841Z,3.50
2018-12-03T03:29:06.577Z,3.50
2018-12-03T03:31:36.184Z,3.60
2018-12-03T03:34:05.772Z,3.60
2018-12-03T03:36:35.299Z,3.50
2018-12-03T03:39:06.874Z,3.70
2018-12-03T03:41:36.652Z,3.70
2018-12-03T03:44:06.960Z,3.70
2018-12-03T03:46:36.652Z,3.70
2018-12-03T03:49:06.166Z,3.70
2018-12-03T03:51:36.133Z,3.70
2018-12-03T03:54:06.722Z,3.80
2018-12-03T03:56:36.455Z,3.70
2018-12-03T03:59:06.270Z,3.80
2018-12-03T04:01:36.022Z,3.80
2018-12-03T04:04:06.777Z,3.90
2018-12-03T04:06:36.417Z,3.80
2018-12-03T04:09:07.511Z,3.90
2018-12-03T04:11:37.149Z,3.90
2018-12-03T04:14:07.113Z,4.00
2018-12-03T04:16:36.832Z,4.00
2018-12-03T04:19:06.454Z,4.00
2018-12-03T04:21:36.272Z,4.00
2018-12-03T04:24:05.921Z,4.10
2018-12-03T04:26:35.852Z,4.10
2018-12-03T04:29:05.841Z,4.10
2018-12-03T04:31:35.681Z,4.10
2018-12-03T04:34:05.478Z,4.10
2018-12-03T04:36:35.192Z,4.10
2018-12-03T04:39:06.469Z,4.10
2018-12-03T04:41:36.215Z,4.10
2018-12-03T04:44:06.514Z,4.10
2018-12-03T04:46:36.075Z,4.10
2018-12-03T04:49:06.191Z,4.10
2018-12-03T04:51:35.978Z,4.20
2018-12-03T04:54:05.437Z,4.10
2018-12-03T04:56:35.334Z,4.20
2018-12-03T04:59:05.128Z,4.20
2018-12-03T05:01:34.879Z,4.30
2018-12-03T05:04:04.646Z,4.30
2018-12-03T05:06:34.588Z,4.30
2018-12-03T05:09:05.528Z,4.30
2018-12-03T05:11:35.573Z,4.30
2018-12-03T05:14:05.757Z,4.30
2018-12-03T05:16:35.638Z,4.40
2018-12-03T05:19:05.454Z,4.50
2018-12-03T05:21:35.702Z,4.50
2018-12-03T05:24:05.512Z,4.50
2018-12-03T05:26:35.066Z,4.50
2018-12-03T05:29:04.700Z,4.60
2018-12-03T05:31:34.270Z,4.60
2018-12-03T05:34:04.048Z,4.60
2018-12-03T05:36:33.694Z,4.60
2018-12-03T05:39:03.798Z,4.60
2018-12-03T05:41:33.586Z,4.60
2018-12-03T05:44:03.240Z,4.60
2018-12-03T05:46:32.846Z,4.60
2018-12-03T05:49:02.447Z,4.60
2018-12-03T05:51:32.070Z,4.60
2018-12-03T05:54:01.661Z,4.50
2018-12-03T05:56:31.290Z,4.40
2018-12-03T05:59:00.786Z,4.30
2018-12-03T06:01:30.796Z,4.40
2018-12-03T06:04:00.687Z,4.40
2018-12-03T06:06:30.244Z,4.20
2018-12-03T06:08:59.830Z,4.30
2018-12-03T06:11:29.858Z,4.30
2018-12-03T06:13:59.324Z,4.40
2018-12-03T06:16:29.092Z,4.40
2018-12-03T06:18:58.742Z,4.50
2018-12-03T06:21:28.184Z,4.60
2018-12-03T06:23:57.866Z,4.70
2018-12-03T06:26:27.623Z,4.80
2018-12-03T06:28:57.671Z,4.70
2018-12-03T06:31:27.228Z,4.80
2018-12-03T06:33:56.817Z,4.80
2018-12-03T06:36:26.622Z,4.80
2018-12-03T06:38:56.624Z,4.80
2018-12-03T06:41:26.632Z,4.80
2018-12-03T06:43:56.144Z,4.90
2018-12-03T06:46:26.184Z,5.00
2018-12-03T06:48:55.784Z,5.10
2018-12-03T06:51:25.295Z,5.00
2018-12-03T06:53:55.290Z,5.10
2018-12-03T06:56:24.916Z,5.20
2018-12-03T06:58:54.624Z,5.20
2018-12-03T07:01:24.339Z,5.10
2018-12-03T07:03:54.064Z,5.10
2018-12-03T07:06:23.658Z,5.10
2018-12-03T07:08:53.310Z,5.20
2018-12-03T07:11:22.935Z,5.30
2018-12-03T07:13:52.964Z,5.40
2018-12-03T07:16:22.684Z,5.30
2018-12-03T07:18:52.446Z,5.30
2018-12-03T07:21:22.130Z,5.40
2018-12-03T07:23:51.829Z,5.50
2018-12-03T07:26:21.370Z,5.60
2018-12-03T07:28:50.923Z,5.60
2018-12-03T07:31:20.550Z,5.70
2018-12-03T07:33:50.181Z,5.70
2018-12-03T07:36:20.068Z,5.70
2018-12-03T07:38:49.662Z,5.70
2018-12-03T07:41:19.389Z,5.70
2018-12-03T07:43:49.175Z,5.80
2018-12-03T07:46:18.838Z,5.80
2018-12-03T07:48:48.698Z,5.70
2018-12-03T07:51:18.631Z,5.60
2018-12-03T07:53:48.412Z,5.70
2018-12-03T07:56:17.942Z,5.80
2018-12-03T07:58:47.614Z,5.90
2018-12-03T08:01:17.091Z,5.90
2018-12-03T08:03:46.814Z,5.90
2018-12-03T08:06:16.410Z,5.90
2018-12-03T08:08:45.992Z,5.80
2018-12-03T08:11:15.918Z,5.90
2018-12-03T08:13:45.802Z,5.80
2018-12-03T08:16:15.348Z,5.90
2018-12-03T08:18:45.034Z,6.00
2018-12-03T08:21:14.548Z,6.00
2018-12-03T08:23:48.150Z,6.10
2018-12-03T08:26:18.185Z,6.30
2018-12-03T08:28:47.776Z,6.40
2018-12-03T08:31:17.400Z,6.40
2018-12-03T08:33:47.193Z,6.40
2018-12-03T08:36:16.923Z,6.40
2018-12-03T08:38:46.782Z,6.60
2018-12-03T08:41:16.667Z,6.60
2018-12-03T08:43:46.522Z,6.70
2018-12-03T08:46:16.559Z,6.70
2018-12-03T08:48:46.146Z,6.80
2018-12-03T08:51:16.089Z,6.80
2018-12-03T08:53:47.905Z,6.90
2018-12-03T08:56:17.665Z,7.00
2018-12-03T08:58:47.682Z,7.10
2018-12-03T09:01:19.459Z,7.20
2018-12-03T09:03:53.966Z,7.20
2018-12-03T09:06:23.602Z,7.20
2018-12-03T09:08:53.390Z,7.20
2018-12-03T09:11:23.751Z,7.10
2018-12-03T09:13:53.459Z,7.10
2018-12-03T09:16:23.075Z,7.10
2018-12-03T09:18:53.535Z,7.10
2018-12-03T09:21:23.253Z,7.20
2018-12-03T09:23:55.197Z,7.30
2018-12-03T09:26:25.008Z,7.30
2018-12-03T09:28:54.672Z,7.40
2018-12-03T09:32:00.401Z,7.40
2018-12-03T09:34:29.985Z,7.50
2018-12-03T09:36:59.729Z,7.60
2018-12-03T09:39:29.449Z,7.70
2018-12-03T09:41:59.211Z,7.60
2018-12-03T09:44:28.731Z,7.80
2018-12-03T09:46:58.638Z,8.00
2018-12-03T09:49:28.379Z,8.20
2018-12-03T09:51:58.137Z,8.20
2018-12-03T09:54:27.893Z,8.20
2018-12-03T09:56:57.479Z,8.10
2018-12-03T09:59:27.421Z,8.00
2018-12-03T10:01:59.531Z,8.10
2018-12-03T10:04:32.271Z,8.00
2018-12-03T10:07:02.061Z,8.10
2018-12-03T10:09:38.335Z,8.20
2018-12-03T10:12:08.955Z,8.20
2018-12-03T10:14:38.884Z,8.30
2018-12-03T10:17:08.661Z,8.30
2018-12-03T10:19:40.057Z,8.20
2018-12-03T10:22:10.016Z,8.40
2018-12-03T10:24:39.702Z,8.40
2018-12-03T10:27:12.070Z,8.30
2018-12-03T10:29:42.219Z,8.40
2018-12-03T10:32:17.407Z,8.40
2018-12-03T10:34:47.057Z,8.50
2018-12-03T10:37:17.955Z,8.50
2018-12-03T10:39:48.671Z,8.50
2018-12-03T10:42:19.024Z,8.60
2018-12-03T10:44:49.227Z,8.60
2018-12-03T10:47:18.823Z,8.60
2018-12-03T10:49:48.659Z,8.60
2018-12-03T10:52:19.771Z,8.70
2018-12-03T10:54:49.516Z,8.90
2018-12-03T10:57:19.222Z,8.90
2018-12-03T10:59:51.685Z,8.70
2018-12-03T11:02:34.783Z,8.70
2018-12-03T11:05:09.824Z,8.70
2018-12-03T11:07:39.555Z,8.70
2018-12-03T11:10:09.444Z,8.60
2018-12-03T11:12:39.479Z,8.60
2018-12-03T11:15:13.696Z,8.50
2018-12-03T11:17:44.682Z,8.50
2018-12-03T11:20:14.482Z,8.40
2018-12-03T11:22:44.574Z,8.30
2018-12-03T11:25:16.097Z,8.40
2018-12-03T11:27:49.530Z,8.40
2018-12-03T11:30:19.826Z,8.50
2018-12-03T11:32:49.902Z,8.60
2018-12-03T11:35:25.764Z,8.70
2018-12-03T11:38:01.390Z,8.70
2018-12-03T11:40:49.174Z,8.60
2018-12-03T11:43:18.700Z,8.60
2018-12-03T11:45:48.509Z,8.50
2018-12-03T11:48:18.248Z,8.50
2018-12-03T11:50:47.787Z,8.50
2018-12-03T11:53:18.386Z,8.60
2018-12-03T11:55:48.302Z,8.70
2018-12-03T11:58:17.782Z,8.90
2018-12-03T12:00:47.491Z,9.00
2018-12-03T12:03:17.278Z,9.10
2018-12-03T12:05:47.215Z,9.10
2018-12-03T12:08:17.210Z,9.20
2018-12-03T12:10:46.752Z,9.20
2018-12-03T12:13:18.314Z,9.20
2018-12-03T12:15:48.114Z,9.20
2018-12-03T12:18:17.849Z,9.10
2018-12-03T12:20:48.000Z,9.20
2018-12-03T12:23:18.253Z,9.20
2018-12-03T12:25:47.885Z,9.10
2018-12-03T12:28:17.477Z,9.10
2018-12-03T12:30:47.125Z,9.10
2018-12-03T12:33:16.551Z,9.20
2018-12-03T12:35:46.161Z,9.10
2018-12-03T12:38:15.893Z,9.10
2018-12-03T12:40:45.481Z,9.00
2018-12-03T12:43:15.313Z,9.00
2018-12-03T12:45:51.517Z,9.10
2018-12-03T12:48:21.295Z,9.00
2018-12-03T12:50:51.210Z,9.00
2018-12-03T12:53:20.928Z,9.00
2018-12-03T12:55:50.410Z,9.00
2018-12-03T12:58:20.266Z,9.10
2018-12-03T13:00:50.044Z,9.10
2018-12-03T13:03:19.540Z,9.00
2018-12-03T13:05:49.345Z,9.00
2018-12-03T13:08:18.864Z,9.10
2018-12-03T13:10:48.469Z,9.00
2018-12-03T13:13:18.058Z,9.00
2018-12-03T13:15:50.761Z,8.90
2018-12-03T13:18:20.235Z,9.00
2018-12-03T13:20:50.373Z,9.00
2018-12-03T13:23:19.835Z,9.10
2018-12-03T13:25:49.505Z,9.10
2018-12-03T13:28:25.493Z,9.00
2018-12-03T13:30:55.169Z,9.00
2018-12-03T13:33:25.108Z,9.00
2018-12-03T13:35:54.715Z,8.90
2018-12-03T13:38:31.103Z,8.80
2018-12-03T13:41:01.041Z,8.80
2018-12-03T13:43:30.900Z,8.80
2018-12-03T13:46:00.657Z,8.90
2018-12-03T13:48:30.395Z,8.80
2018-12-03T13:51:00.033Z,8.70
2018-12-03T13:53:29.633Z,8.70
2018-12-03T13:55:59.540Z,8.70
2018-12-03T13:58:29.339Z,8.70
2018-12-03T14:00:58.981Z,8.70
2018-12-03T14:03:31.014Z,8.60
2018-12-03T14:06:09.775Z,8.40
2018-12-03T14:08:50.315Z,8.40
2018-12-03T14:11:31.264Z,8.40
2018-12-03T14:18:18.014Z,8.40
2018-12-03T14:20:49.558Z,8.30
2018-12-03T14:23:22.775Z,8.40
2018-12-03T14:25:52.434Z,8.30
2018-12-03T14:28:22.041Z,8.50
2018-12-03T14:30:51.476Z,8.40
2018-12-03T14:33:21.234Z,8.30
2018-12-03T14:35:51.088Z,8.30
2018-12-03T14:38:20.592Z,8.30
2018-12-03T14:40:50.432Z,8.30
2018-12-03T14:43:20.265Z,8.20
2018-12-03T14:45:50.192Z,8.30
2018-12-03T14:48:20.017Z,8.40
2018-12-03T14:50:49.661Z,8.30
2018-12-03T14:53:19.477Z,8.40
2018-12-03T14:55:49.255Z,8.30
2018-12-03T14:58:18.784Z,8.40
2018-12-03T15:00:48.565Z,8.40
2018-12-03T15:03:18.531Z,8.40
2018-12-03T15:05:49.561Z,8.40
2018-12-03T15:08:19.229Z,8.40
2018-12-03T15:10:48.907Z,8.30
2018-12-03T15:13:18.925Z,8.30
2018-12-03T15:15:48.704Z,8.40
2018-12-03T15:18:18.444Z,8.40
2018-12-03T15:20:51.715Z,8.30
2018-12-03T15:23:21.389Z,8.30
2018-12-03T15:25:50.848Z,8.30
2018-12-03T15:28:20.871Z,8.30
2018-12-03T15:30:50.570Z,8.40
2018-12-03T15:33:20.315Z,8.50
2018-12-03T15:35:50.193Z,8.50
2018-12-03T15:38:20.866Z,8.20
2018-12-03T15:40:50.759Z,8.40
2018-12-03T15:43:20.528Z,8.40
2018-12-03T15:45:50.230Z,8.30
2018-12-03T15:48:19.931Z,8.20
2018-12-03T15:50:49.629Z,8.20
2018-12-03T15:53:19.387Z,8.20
2018-12-03T15:55:49.021Z,8.30
2018-12-03T15:58:18.587Z,8.30
2018-12-03T16:00:48.675Z,8.30
2018-12-03T16:03:18.334Z,8.40
2018-12-03T16:05:48.047Z,8.30
2018-12-03T16:08:17.675Z,8.30
2018-12-03T16:10:47.336Z,8.30
2018-12-03T16:13:17.158Z,8.30
2018-12-03T16:15:46.770Z,8.30
2018-12-03T16:18:16.353Z,8.30
2018-12-03T16:20:46.010Z,8.40
2018-12-03T16:23:15.595Z,8.40
2018-12-03T16:25:45.109Z,8.30
2018-12-03T16:28:14.831Z,8.40
2018-12-03T16:30:44.444Z,8.40
2018-12-03T16:33:13.945Z,8.30
2018-12-03T16:35:43.750Z,8.40
2018-12-03T16:38:13.485Z,8.40
2018-12-03T16:40:43.191Z,8.40
2018-12-03T16:43:12.649Z,8.30
2018-12-03T16:45:43.276Z,8.40
2018-12-03T16:48:12.917Z,8.40
2018-12-03T16:50:42.447Z,8.30
2018-12-03T16:53:11.992Z,8.30
2018-12-03T16:55:41.981Z,8.30
2018-12-03T16:58:11.633Z,8.30
2018-12-03T17:00:41.304Z,8.30
2018-12-03T17:03:10.889Z,8.30
2018-12-03T17:05:40.604Z,8.20
2018-12-03T17:08:10.455Z,8.20
2018-12-03T17:10:39.971Z,8.20
2018-12-03T17:13:09.814Z,8.30
2018-12-03T17:15:39.528Z,8.20
2018-12-03T17:18:11.296Z,8.20
2018-12-03T17:21:24.689Z,8.10
2018-12-03T17:24:01.983Z,8.10
2018-12-03T17:26:31.765Z,8.20
2018-12-03T17:29:01.307Z,8.10
2018-12-03T17:31:31.022Z,8.00
2018-12-03T17:34:00.835Z,8.00
2018-12-03T17:36:30.429Z,8.10
2018-12-03T17:39:00.050Z,8.20
2018-12-03T17:41:29.863Z,8.10
2018-12-03T17:44:05.818Z,8.10
2018-12-03T17:46:35.343Z,8.10
2018-12-03T17:49:04.834Z,8.20
2018-12-03T17:51:34.565Z,8.20
2018-12-03T17:54:04.325Z,8.20
2018-12-03T17:56:34.144Z,8.10
2018-12-03T17:59:03.912Z,8.20
2018-12-03T18:01:33.445Z,8.10
2018-12-03T18:04:03.083Z,8.10
2018-12-03T18:06:33.409Z,8.10
2018-12-03T18:09:03.843Z,8.20
2018-12-03T18:11:35.398Z,8.30
2018-12-03T18:14:04.851Z,8.20
2018-12-03T18:16:34.495Z,8.10
2018-12-03T18:19:04.262Z,8.20
2018-12-03T18:21:34.087Z,8.30
2018-12-03T18:24:04.127Z,8.20
2018-12-03T18:26:33.991Z,8.20
2018-12-03T18:29:03.554Z,8.20
2018-12-03T18:31:33.236Z,8.30
2018-12-03T18:34:03.135Z,8.20
2018-12-03T18:36:33.003Z,8.30
2018-12-03T18:39:02.679Z,8.20
2018-12-03T18:41:34.341Z,8.20
2018-12-03T18:44:04.094Z,8.20
2018-12-03T18:46:33.674Z,8.00
2018-12-03T18:49:39.311Z,8.10
2018-12-03T18:52:09.963Z,8.10
2018-12-03T18:54:39.600Z,8.10
2018-12-03T18:57:09.274Z,8.20
2018-12-03T18:59:38.984Z,8.20
2018-12-03T19:02:15.306Z,8.20
2018-12-03T19:04:44.811Z,8.20
2018-12-03T19:07:14.203Z,8.30
2018-12-03T19:09:43.739Z,8.30
2018-12-03T19:12:13.298Z,8.30
2018-12-03T19:14:43.098Z,8.30
2018-12-03T19:17:12.887Z,8.20
2018-12-03T19:19:42.498Z,8.20
2018-12-03T19:22:12.045Z,8.20
2018-12-03T19:24:41.594Z,8.30
2018-12-03T19:27:11.248Z,8.40
2018-12-03T19:29:40.914Z,8.30
2018-12-03T19:32:12.615Z,8.30
2018-12-03T19:34:44.400Z,8.20
2018-12-03T19:37:16.107Z,8.30
2018-12-03T19:39:45.790Z,8.30
2018-12-03T19:42:21.905Z,8.30
2018-12-03T19:44:51.827Z,8.30
2018-12-03T19:47:21.668Z,8.30
2018-12-03T19:49:51.096Z,8.30
2018-12-03T19:52:20.766Z,8.30
2018-12-03T19:54:51.274Z,8.30
2018-12-03T19:57:26.008Z,8.20
2018-12-03T20:00:00.890Z,8.40
2018-12-03T20:02:28.785Z,8.40
2018-12-03T20:07:46.845Z,8.30
2018-12-03T20:10:19.231Z,8.30
2018-12-03T20:12:49.420Z,8.40
2018-12-03T20:15:19.146Z,8.20
2018-12-03T20:17:49.063Z,8.30
2018-12-03T20:20:28.175Z,8.40
2018-12-03T20:23:02.298Z,8.40
2018-12-03T20:25:37.834Z,8.40
2018-12-03T20:28:11.570Z,8.40
2018-12-03T20:31:06.906Z,8.40
2018-12-03T20:34:50.842Z,8.40
2018-12-03T20:37:44.738Z,8.40
2018-12-03T20:40:21.514Z,8.40
2018-12-03T20:42:59.798Z,8.30
2018-12-03T20:46:46.946Z,8.40
2018-12-03T20:49:25.815Z,8.40
2018-12-03T20:52:05.674Z,8.40
2018-12-03T20:54:35.310Z,8.40
2018-12-03T20:57:05.354Z,8.40
2018-12-03T20:59:35.003Z,8.40
2018-12-03T21:02:06.698Z,8.50
2018-12-03T21:04:36.244Z,8.50
2018-12-03T21:07:06.010Z,8.40
2018-12-03T21:09:35.470Z,8.40
2018-12-03T21:12:05.120Z,8.40
2018-12-03T21:14:34.877Z,8.40
2018-12-03T21:17:04.302Z,8.40
2018-12-03T21:19:33.990Z,8.40
2018-12-03T21:22:03.692Z,8.50
2018-12-03T21:24:33.242Z,8.40
2018-12-03T21:27:02.879Z,8.40
2018-12-03T21:29:32.637Z,8.40
2018-12-03T21:32:02.380Z,8.50
2018-12-03T21:34:32.002Z,8.50
2018-12-03T21:37:01.471Z,8.40
2018-12-03T21:39:31.362Z,8.40
2018-12-03T21:42:00.978Z,8.40
2018-12-03T21:44:30.830Z,8.40
2018-12-03T21:47:00.617Z,8.50
2018-12-03T21:49:30.248Z,8.50
2018-12-03T21:51:59.890Z,8.50
2018-12-03T21:54:29.493Z,8.50
2018-12-03T21:56:59.062Z,8.50
2018-12-03T21:59:28.890Z,8.60
2018-12-03T22:01:58.640Z,8.50
2018-12-03T22:04:28.284Z,8.60
2018-12-03T22:06:57.852Z,8.50
2018-12-03T22:09:27.522Z,8.50
2018-12-03T22:11:57.727Z,8.60
2018-12-03T22:14:27.262Z,8.60
2018-12-03T22:16:56.767Z,8.60
2018-12-03T22:19:26.354Z,8.60
2018-12-03T22:22:02.320Z,8.60
2018-12-03T22:24:32.153Z,8.50
2018-12-03T22:27:01.729Z,8.60
2018-12-03T22:29:31.238Z,8.60
2018-12-03T22:32:01.063Z,8.40
2018-12-03T22:34:31.118Z,8.30
2018-12-03T22:37:00.697Z,8.20
2018-12-03T22:39:30.452Z,8.10
2018-12-03T22:42:00.325Z,8.00
2018-12-03T22:44:30.160Z,7.90
2018-12-03T22:46:59.827Z,7.80
2018-12-03T22:49:29.641Z,7.80
2018-12-03T22:51:59.507Z,7.80
2018-12-03T22:54:29.545Z,7.70
2018-12-03T22:56:59.137Z,7.70
2018-12-03T22:59:29.006Z,7.60
2018-12-03T23:01:58.868Z,7.70
2018-12-03T23:04:28.909Z,7.60
2018-12-03T23:06:58.696Z,7.60
2018-12-03T23:09:28.449Z,7.60
2018-12-03T23:11:58.347Z,7.60
2018-12-03T23:14:27.907Z,7.50
2018-12-03T23:16:57.653Z,7.60
2018-12-03T23:19:27.330Z,7.60
2018-12-03T23:21:56.970Z,7.60
2018-12-03T23:24:26.533Z,7.70
2018-12-03T23:26:56.146Z,7.80
2018-12-03T23:29:26.018Z,7.90
2018-12-03T23:31:55.857Z,8.00
2018-12-03T23:34:25.656Z,8.00
2018-12-03T23:36:55.230Z,8.10
2018-12-03T23:39:24.907Z,8.10
2018-12-03T23:41:54.759Z,8.10
2018-12-03T23:44:24.530Z,8.00
2018-12-03T23:46:54.254Z,7.80
2018-12-03T23:49:24.016Z,8.00
2018-12-03T23:51:53.626Z,8.00
2018-12-03T23:54:23.224Z,8.00
2018-12-03T23:56:53.199Z,8.00
2018-12-03T23:59:23.104Z,8.00
